createdAt,value
2023-05-03T00:00:16.557Z,100.00
2023-05-03T00:02:44.926Z,100.00
2023-05-03T00:05:12.924Z,100.00
2023-05-03T00:07:41.946Z,100.00
2023-05-03T00:10:10.302Z,100.00
2023-05-03T00:12:40.688Z,100.00
2023-05-03T00:15:08.923Z,100.00
2023-05-03T00:17:38.660Z,100.00
2023-05-03T00:20:06.447Z,100.00
2023-05-03T00:22:33.377Z,100.00
2023-05-03T00:25:00.658Z,100.00
2023-05-03T00:27:27.188Z,100.00
2023-05-03T00:29:54.037Z,100.00
2023-05-03T00:32:22.750Z,100.00
2023-05-03T00:34:54.124Z,100.00
2023-05-03T00:37:21.228Z,100.00
2023-05-03T00:39:48.223Z,100.00
2023-05-03T00:42:15.394Z,100.00
2023-05-03T00:44:42.299Z,100.00
2023-05-03T00:47:10.232Z,100.00
2023-05-03T00:49:37.201Z,100.00
2023-05-03T00:52:04.019Z,100.00
2023-05-03T00:54:30.817Z,100.00
2023-05-03T00:56:57.832Z,100.00
2023-05-03T00:59:24.784Z,100.00
2023-05-03T01:01:53.005Z,100.00
2023-05-03T01:04:21.622Z,100.00
2023-05-03T01:06:57.949Z,100.00
2023-05-03T01:09:33.944Z,100.00
2023-05-03T01:12:12.861Z,100.00
2023-05-03T01:14:51.523Z,100.00
2023-05-03T01:17:22.127Z,100.00
2023-05-03T01:19:52.065Z,100.00
2023-05-03T01:22:56.302Z,100.00
2023-05-03T01:25:23.048Z,100.00
2023-05-03T01:27:49.937Z,100.00
2023-05-03T01:30:17.141Z,100.00
2023-05-03T01:33:06.032Z,100.00
2023-05-03T01:35:37.211Z,100.00
2023-05-03T01:38:04.948Z,100.00
2023-05-03T01:40:39.236Z,100.00
2023-05-03T01:43:07.634Z,100.00
2023-05-03T01:45:34.693Z,100.00
2023-05-03T01:48:01.395Z,100.00
2023-05-03T01:50:27.952Z,100.00
2023-05-03T01:52:54.778Z,100.00
2023-05-03T01:55:21.332Z,100.00
2023-05-03T01:57:47.881Z,100.00
2023-05-03T02:00:14.733Z,100.00
2023-05-03T02:02:41.352Z,100.00
2023-05-03T02:05:09.494Z,100.00
2023-05-03T02:07:36.230Z,100.00
2023-05-03T02:10:03.086Z,100.00
2023-05-03T02:12:30.069Z,100.00
2023-05-03T02:14:56.586Z,100.00
2023-05-03T02:17:26.646Z,100.00
2023-05-03T02:19:53.760Z,100.00
2023-05-03T02:22:20.538Z,100.00
2023-05-03T02:24:47.848Z,100.00
2023-05-03T02:27:15.134Z,100.00
2023-05-03T02:29:43.034Z,100.00
2023-05-03T02:32:10.199Z,100.00
2023-05-03T02:34:36.768Z,100.00
2023-05-03T02:37:04.305Z,100.00
2023-05-03T02:39:31.435Z,100.00
2023-05-03T02:41:58.151Z,100.00
2023-05-03T02:44:25.118Z,100.00
2023-05-03T02:46:51.862Z,100.00
2023-05-03T02:49:18.385Z,100.00
2023-05-03T02:51:45.048Z,100.00
2023-05-03T02:54:12.241Z,100.00
2023-05-03T02:56:39.427Z,100.00
2023-05-03T02:59:06.198Z,100.00
2023-05-03T03:01:34.116Z,100.00
2023-05-03T03:04:01.021Z,100.00
2023-05-03T03:06:28.239Z,100.00
2023-05-03T03:08:55.262Z,100.00
2023-05-03T03:11:22.316Z,100.00
2023-05-03T03:13:49.032Z,100.00
2023-05-03T03:16:15.991Z,100.00
2023-05-03T03:18:42.854Z,100.00
2023-05-03T03:21:09.876Z,100.00
2023-05-03T03:23:37.120Z,100.00
2023-05-03T03:26:03.988Z,100.00
2023-05-03T03:28:30.763Z,100.00
2023-05-03T03:31:00.668Z,100.00
2023-05-03T03:33:27.282Z,100.00
2023-05-03T03:35:59.437Z,100.00
2023-05-03T03:38:31.002Z,100.00
2023-05-03T03:41:02.559Z,100.00
2023-05-03T03:43:29.451Z,100.00
2023-05-03T03:45:56.992Z,100.00
2023-05-03T03:48:23.581Z,100.00
2023-05-03T03:50:50.801Z,100.00
2023-05-03T03:53:19.192Z,100.00
2023-05-03T03:55:46.813Z,100.00
2023-05-03T03:58:15.374Z,100.00
2023-05-03T04:00:42.846Z,100.00
2023-05-03T04:03:14.177Z,100.00
2023-05-03T04:05:41.721Z,100.00
2023-05-03T04:08:09.352Z,100.00
2023-05-03T04:10:36.765Z,100.00
2023-05-03T04:13:04.413Z,100.00
2023-05-03T04:15:31.202Z,100.00
2023-05-03T04:18:00.003Z,100.00
2023-05-03T04:20:27.173Z,100.00
2023-05-03T04:22:54.312Z,100.00
2023-05-03T04:25:25.840Z,100.00
2023-05-03T04:27:58.743Z,100.00
2023-05-03T04:30:26.547Z,100.00
2023-05-03T04:32:59.466Z,100.00
2023-05-03T04:35:28.874Z,100.00
2023-05-03T04:37:57.523Z,100.00
2023-05-03T04:40:26.326Z,100.00
2023-05-03T04:43:04.203Z,100.00
2023-05-03T04:45:34.320Z,100.00
2023-05-03T04:48:01.893Z,100.00
2023-05-03T04:50:28.995Z,100.00
2023-05-03T04:52:55.605Z,100.00
2023-05-03T04:55:24.688Z,100.00
2023-05-03T04:57:52.330Z,100.00
2023-05-03T05:00:19.203Z,100.00
2023-05-03T05:02:51.827Z,100.00
2023-05-03T05:05:20.581Z,100.00
2023-05-03T05:07:47.728Z,100.00
2023-05-03T05:10:16.750Z,100.00
2023-05-03T05:12:43.751Z,100.00
2023-05-03T05:15:11.223Z,100.00
2023-05-03T05:17:39.099Z,100.00
2023-05-03T05:20:12.144Z,100.00
2023-05-03T05:22:42.008Z,100.00
2023-05-03T05:25:08.957Z,100.00
2023-05-03T05:27:36.316Z,100.00
2023-05-03T05:30:05.184Z,100.00
2023-05-03T05:32:33.543Z,100.00
2023-05-03T05:35:01.095Z,100.00
2023-05-03T05:37:28.607Z,100.00
2023-05-03T05:39:58.850Z,100.00
2023-05-03T05:42:28.280Z,100.00
2023-05-03T05:44:55.230Z,100.00
2023-05-03T05:47:22.248Z,100.00
2023-05-03T05:49:51.186Z,100.00
2023-05-03T05:52:17.796Z,100.00
2023-05-03T05:54:44.601Z,100.00
2023-05-03T05:57:12.596Z,100.00
2023-05-03T05:59:39.435Z,100.00
2023-05-03T06:02:14.824Z,100.00
2023-05-03T06:04:41.744Z,100.00
2023-05-03T06:07:08.406Z,100.00
2023-05-03T06:09:35.106Z,100.00
2023-05-03T06:12:03.589Z,100.00
2023-05-03T06:14:32.289Z,100.00
2023-05-03T06:17:00.646Z,100.00
2023-05-03T06:19:27.352Z,100.00
2023-05-03T06:21:54.248Z,100.00
2023-05-03T06:24:21.896Z,100.00
2023-05-03T06:26:51.690Z,100.00
2023-05-03T06:29:18.632Z,100.00
2023-05-03T06:31:45.846Z,100.00
2023-05-03T06:34:13.156Z,100.00
2023-05-03T06:36:41.683Z,100.00
2023-05-03T06:39:09.524Z,100.00
2023-05-03T06:41:36.150Z,100.00
2023-05-03T06:44:04.253Z,100.00
2023-05-03T06:46:30.999Z,100.00
2023-05-03T06:48:57.824Z,100.00
2023-05-03T06:51:30.092Z,100.00
2023-05-03T06:54:02.019Z,100.00
2023-05-03T06:56:28.911Z,100.00
2023-05-03T06:58:55.535Z,100.00
2023-05-03T07:01:23.252Z,100.00
2023-05-03T07:03:49.977Z,100.00
2023-05-03T07:06:16.932Z,100.00
2023-05-03T07:08:43.607Z,100.00
2023-05-03T07:11:10.605Z,100.00
2023-05-03T07:13:37.533Z,100.00
2023-05-03T07:16:04.362Z,100.00
2023-05-03T07:18:31.077Z,100.00
2023-05-03T07:20:57.602Z,100.00
2023-05-03T07:23:24.462Z,100.00
2023-05-03T07:25:51.570Z,100.00
2023-05-03T07:28:18.219Z,100.00
2023-05-03T07:30:45.105Z,100.00
2023-05-03T07:33:12.120Z,100.00
2023-05-03T07:35:38.761Z,100.00
2023-05-03T07:38:05.525Z,100.00
2023-05-03T07:40:33.432Z,100.00
2023-05-03T07:43:00.678Z,100.00
2023-05-03T07:45:27.655Z,100.00
2023-05-03T07:47:55.463Z,100.00
2023-05-03T07:50:22.423Z,100.00
2023-05-03T07:52:51.784Z,100.00
2023-05-03T07:55:20.295Z,100.00
2023-05-03T07:57:47.064Z,100.00
2023-05-03T08:00:14.817Z,100.00
2023-05-03T08:02:41.920Z,100.00
2023-05-03T08:05:10.590Z,100.00
2023-05-03T08:07:37.256Z,100.00
2023-05-03T08:10:04.512Z,100.00
2023-05-03T08:12:31.336Z,100.00
2023-05-03T08:14:58.258Z,100.00
2023-05-03T08:17:24.856Z,100.00
2023-05-03T08:19:52.228Z,100.00
2023-05-03T08:22:18.733Z,100.00
2023-05-03T08:24:45.323Z,100.00
2023-05-03T08:27:12.551Z,100.00
2023-05-03T08:29:39.195Z,100.00
2023-05-03T08:32:06.015Z,100.00
2023-05-03T08:34:32.709Z,100.00
2023-05-03T08:36:59.551Z,100.00
2023-05-03T08:39:26.777Z,100.00
2023-05-03T08:41:55.094Z,100.00
2023-05-03T08:44:23.279Z,100.00
2023-05-03T08:46:51.605Z,100.00
2023-05-03T08:49:18.579Z,100.00
2023-05-03T08:51:47.323Z,100.00
2023-05-03T08:54:18.264Z,100.00
2023-05-03T08:56:46.535Z,100.00
2023-05-03T08:59:14.050Z,100.00
2023-05-03T09:01:41.828Z,100.00
2023-05-03T09:04:10.261Z,100.00
2023-05-03T09:06:37.913Z,100.00
2023-05-03T09:09:09.151Z,100.00
2023-05-03T09:11:38.321Z,100.00
2023-05-03T09:14:13.884Z,100.00
2023-05-03T09:16:42.709Z,100.00
2023-05-03T09:19:11.727Z,100.00
2023-05-03T09:21:40.411Z,100.00
2023-05-03T09:24:25.338Z,100.00
2023-05-03T09:26:53.125Z,100.00
2023-05-03T09:29:35.988Z,100.00
2023-05-03T09:32:06.450Z,100.00
2023-05-03T09:34:35.261Z,100.00
2023-05-03T09:37:01.952Z,100.00
2023-05-03T09:39:28.614Z,100.00
2023-05-03T09:41:55.211Z,100.00
2023-05-03T09:44:41.581Z,100.00
2023-05-03T09:47:08.392Z,100.00
2023-05-03T09:49:38.775Z,100.00
2023-05-03T09:52:07.026Z,100.00
2023-05-03T09:54:36.915Z,100.00
2023-05-03T09:57:05.853Z,100.00
2023-05-03T09:59:37.668Z,100.00
2023-05-03T10:02:07.686Z,100.00
2023-05-03T10:04:51.230Z,100.00
2023-05-03T10:07:20.389Z,100.00
2023-05-03T10:09:48.240Z,100.00
2023-05-03T10:12:17.596Z,100.00
2023-05-03T10:14:46.462Z,100.00
2023-05-03T10:17:18.950Z,100.00
2023-05-03T10:19:53.085Z,100.00
2023-05-03T10:22:19.673Z,100.00
2023-05-03T10:25:01.699Z,100.00
2023-05-03T10:27:43.089Z,100.00
2023-05-03T10:30:28.562Z,100.00
2023-05-03T10:32:55.836Z,100.00
2023-05-03T10:35:27.108Z,100.00
2023-05-03T10:37:54.215Z,100.00
2023-05-03T10:40:22.305Z,100.00
2023-05-03T10:42:54.151Z,100.00
2023-05-03T10:45:26.958Z,100.00
2023-05-03T10:48:12.055Z,100.00
2023-05-03T10:50:40.126Z,100.00
2023-05-03T10:53:07.083Z,100.00
2023-05-03T10:55:34.703Z,100.00
2023-05-03T10:58:03.867Z,100.00
2023-05-03T11:00:33.665Z,100.00
2023-05-03T11:03:18.533Z,100.00
2023-05-03T11:05:47.901Z,93.38
2023-05-03T11:08:19.644Z,92.61
2023-05-03T11:10:48.411Z,95.87
2023-05-03T11:13:16.298Z,93.15
2023-05-03T11:15:43.057Z,89.31
2023-05-03T11:18:13.588Z,90.96
2023-05-03T11:20:40.688Z,89.12
2023-05-03T11:23:07.437Z,85.65
2023-05-03T11:25:34.681Z,87.52
2023-05-03T11:28:02.267Z,89.89
2023-05-03T11:30:30.300Z,89.71
2023-05-03T11:32:58.244Z,83.53
2023-05-03T11:35:26.887Z,78.52
2023-05-03T11:37:54.185Z,73.85
2023-05-03T11:40:21.417Z,63.38
2023-05-03T11:43:14.348Z,56.46
2023-05-03T11:45:44.058Z,62.63
2023-05-03T11:48:12.306Z,61.79
2023-05-03T11:50:54.413Z,64.19
2023-05-03T11:53:26.346Z,66.88
2023-05-03T11:55:54.259Z,64.26
2023-05-03T11:58:26.639Z,64.50
2023-05-03T12:00:56.217Z,60.15
2023-05-03T12:03:30.213Z,54.58
2023-05-03T12:05:59.558Z,65.82
2023-05-03T12:08:32.264Z,60.47
2023-05-03T12:11:03.351Z,57.09
2023-05-03T12:13:37.754Z,52.05
2023-05-03T12:16:12.662Z,50.33
2023-05-03T12:18:50.907Z,52.09
2023-05-03T12:23:50.475Z,50.00
2023-05-03T12:26:21.480Z,51.65
2023-05-03T12:28:48.749Z,44.70
2023-05-03T12:31:17.869Z,43.85
2023-05-03T12:33:55.494Z,43.82
2023-05-03T12:36:35.641Z,44.55
2023-05-03T12:39:05.721Z,44.66
2023-05-03T12:42:05.539Z,41.83
2023-05-03T12:44:23.845Z,41.43
2023-05-03T12:46:52.864Z,42.39
2023-05-03T12:49:22.862Z,40.01
2023-05-03T12:52:09.075Z,41.80
2023-05-03T12:54:41.605Z,38.22
2023-05-03T12:57:15.686Z,42.37
2023-05-03T12:59:43.634Z,39.49
2023-05-03T13:04:57.756Z,41.33
2023-05-03T13:07:29.733Z,40.16
2023-05-03T13:12:29.285Z,38.23
2023-05-03T13:14:55.988Z,40.78
2023-05-03T13:17:23.399Z,38.25
2023-05-03T13:19:52.434Z,39.14
2023-05-03T13:22:19.092Z,37.55
2023-05-03T13:24:48.292Z,35.36
2023-05-03T13:27:16.291Z,34.63
2023-05-03T13:29:43.197Z,33.40
2023-05-03T13:32:09.913Z,34.97
2023-05-03T13:34:36.811Z,35.03
2023-05-03T13:37:04.429Z,36.91
2023-05-03T13:39:31.697Z,36.44
2023-05-03T13:41:58.438Z,36.38
2023-05-03T13:44:25.437Z,38.82
2023-05-03T13:46:52.840Z,38.48
2023-05-03T13:49:19.726Z,38.17
2023-05-03T13:51:46.407Z,35.49
2023-05-03T13:54:13.371Z,34.73
2023-05-03T13:56:41.584Z,37.07
2023-05-03T13:59:09.738Z,37.45
2023-05-03T14:01:37.399Z,34.51
2023-05-03T14:04:05.343Z,38.01
2023-05-03T14:06:33.595Z,37.73
2023-05-03T14:09:01.958Z,38.20
2023-05-03T14:11:30.754Z,34.54
2023-05-03T14:13:58.477Z,30.32
2023-05-03T14:16:40.060Z,33.18
2023-05-03T14:19:10.805Z,34.04
2023-05-03T14:21:38.321Z,31.91
2023-05-03T14:24:06.400Z,31.57
2023-05-03T14:26:33.984Z,32.47
2023-05-03T14:29:01.022Z,32.33
2023-05-03T14:31:28.012Z,33.72
2023-05-03T14:33:55.307Z,31.89
2023-05-03T14:36:22.046Z,33.62
2023-05-03T14:38:48.751Z,37.01
2023-05-03T14:41:16.174Z,37.47
2023-05-03T14:43:42.699Z,34.03
2023-05-03T14:46:10.211Z,31.48
2023-05-03T14:48:38.162Z,31.75
2023-05-03T14:51:05.520Z,30.97
2023-05-03T14:53:32.435Z,33.37
2023-05-03T14:55:59.415Z,32.08
2023-05-03T14:58:26.526Z,32.31
2023-05-03T15:00:53.558Z,32.55
2023-05-03T15:03:20.263Z,31.73
2023-05-03T15:05:48.850Z,30.65
2023-05-03T15:08:17.313Z,31.62
2023-05-03T15:10:47.678Z,30.96
2023-05-03T15:13:15.835Z,30.38
2023-05-03T15:15:46.072Z,31.05
2023-05-03T15:18:14.606Z,33.21
2023-05-03T15:20:41.484Z,32.78
2023-05-03T15:23:08.213Z,32.18
2023-05-03T15:25:35.521Z,33.08
2023-05-03T15:28:04.789Z,31.95
2023-05-03T15:30:32.655Z,31.80
2023-05-03T15:32:59.646Z,31.77
2023-05-03T15:35:27.237Z,31.25
2023-05-03T15:37:53.803Z,33.29
2023-05-03T15:40:23.125Z,36.61
2023-05-03T15:42:51.854Z,37.63
2023-05-03T15:45:19.014Z,40.15
2023-05-03T15:47:46.144Z,41.71
2023-05-03T15:50:12.942Z,39.16
2023-05-03T15:52:39.784Z,35.98
2023-05-03T15:55:08.328Z,36.03
2023-05-03T15:57:34.968Z,37.61
2023-05-03T16:00:01.935Z,37.73
2023-05-03T16:02:34.027Z,39.54
2023-05-03T16:05:00.799Z,40.69
2023-05-03T16:07:27.810Z,39.23
2023-05-03T16:09:54.361Z,36.91
2023-05-03T16:12:21.357Z,36.23
2023-05-03T16:14:48.095Z,36.85
2023-05-03T16:17:14.644Z,37.03
2023-05-03T16:19:41.377Z,35.15
2023-05-03T16:22:08.009Z,35.06
2023-05-03T16:24:35.032Z,34.55
2023-05-03T16:27:03.616Z,37.19
2023-05-03T16:29:30.405Z,38.94
2023-05-03T16:31:57.081Z,39.91
2023-05-03T16:34:23.886Z,40.10
2023-05-03T16:36:50.762Z,39.83
2023-05-03T16:39:18.035Z,42.37
2023-05-03T16:41:44.665Z,44.82
2023-05-03T16:44:11.602Z,47.87
2023-05-03T16:46:40.095Z,56.40
2023-05-03T16:49:07.187Z,57.44
2023-05-03T16:51:33.948Z,58.54
2023-05-03T16:54:02.456Z,62.05
2023-05-03T16:56:31.182Z,60.39
2023-05-03T16:58:59.257Z,63.86
2023-05-03T17:01:26.440Z,61.74
2023-05-03T17:03:53.480Z,62.16
2023-05-03T17:06:20.463Z,63.63
2023-05-03T17:08:47.348Z,64.81
2023-05-03T17:11:14.601Z,64.79
2023-05-03T17:13:41.643Z,69.82
2023-05-03T17:16:15.148Z,70.68
2023-05-03T17:18:42.300Z,73.78
2023-05-03T17:21:10.264Z,74.62
2023-05-03T17:23:39.403Z,77.54
2023-05-03T17:26:09.037Z,78.21
2023-05-03T17:28:36.606Z,79.97
2023-05-03T17:31:03.785Z,84.51
2023-05-03T17:33:30.394Z,84.20
2023-05-03T17:35:57.157Z,84.43
2023-05-03T17:38:23.978Z,83.50
2023-05-03T17:40:50.824Z,85.07
2023-05-03T17:43:17.881Z,90.05
2023-05-03T17:45:47.402Z,89.65
2023-05-03T17:48:14.467Z,92.96
2023-05-03T17:50:43.095Z,91.89
2023-05-03T17:53:09.739Z,93.21
2023-05-03T17:55:38.030Z,92.55
2023-05-03T17:58:06.226Z,95.55
2023-05-03T18:00:33.649Z,95.42
2023-05-03T18:03:00.775Z,98.94
2023-05-03T18:05:27.581Z,99.39
2023-05-03T18:07:54.347Z,100.00
2023-05-03T18:10:21.252Z,100.00
2023-05-03T18:12:48.121Z,100.00
2023-05-03T18:15:15.932Z,100.00
2023-05-03T18:17:43.298Z,100.00
2023-05-03T18:20:10.582Z,100.00
2023-05-03T18:22:37.788Z,100.00
2023-05-03T18:25:07.443Z,100.00
2023-05-03T18:27:37.360Z,100.00
2023-05-03T18:30:06.635Z,100.00
2023-05-03T18:32:34.574Z,100.00
2023-05-03T18:35:02.511Z,100.00
2023-05-03T18:37:29.455Z,100.00
2023-05-03T18:39:56.212Z,100.00
2023-05-03T18:42:23.046Z,100.00
2023-05-03T18:44:49.952Z,100.00
2023-05-03T18:47:20.628Z,100.00
2023-05-03T18:49:53.072Z,100.00
2023-05-03T18:52:20.794Z,100.00
2023-05-03T18:54:47.886Z,100.00
2023-05-03T18:57:14.475Z,100.00
2023-05-03T18:59:52.438Z,100.00
2023-05-03T19:02:25.304Z,100.00
2023-05-03T19:04:52.685Z,100.00
2023-05-03T19:07:19.520Z,100.00
2023-05-03T19:09:46.246Z,100.00
2023-05-03T19:12:13.622Z,100.00
2023-05-03T19:14:43.305Z,100.00
2023-05-03T19:17:09.918Z,100.00
2023-05-03T19:19:36.599Z,100.00
2023-05-03T19:22:03.567Z,100.00
2023-05-03T19:24:30.192Z,100.00
2023-05-03T19:26:56.872Z,100.00
2023-05-03T19:29:23.491Z,100.00
2023-05-03T19:31:53.298Z,100.00
2023-05-03T19:34:20.350Z,100.00
2023-05-03T19:36:46.929Z,100.00
2023-05-03T19:39:13.621Z,100.00
2023-05-03T19:41:40.199Z,100.00
2023-05-03T19:44:06.913Z,100.00
2023-05-03T19:46:33.968Z,100.00
2023-05-03T19:49:01.373Z,100.00
2023-05-03T19:51:28.619Z,100.00
2023-05-03T19:53:56.092Z,100.00
2023-05-03T19:56:25.066Z,100.00
2023-05-03T19:58:51.950Z,100.00
2023-05-03T20:01:18.669Z,100.00
2023-05-03T20:03:46.602Z,100.00
2023-05-03T20:06:14.049Z,100.00
2023-05-03T20:08:41.104Z,100.00
2023-05-03T20:11:07.887Z,100.00
2023-05-03T20:13:34.453Z,100.00
2023-05-03T20:16:08.272Z,100.00
2023-05-03T20:18:35.164Z,100.00
2023-05-03T20:21:03.320Z,100.00
2023-05-03T20:23:29.970Z,100.00
2023-05-03T20:25:57.149Z,100.00
2023-05-03T20:28:24.071Z,100.00
2023-05-03T20:30:50.766Z,100.00
2023-05-03T20:33:17.405Z,100.00
2023-05-03T20:35:44.214Z,100.00
2023-05-03T20:38:10.863Z,100.00
2023-05-03T20:40:37.372Z,100.00
2023-05-03T20:43:04.350Z,100.00
2023-05-03T20:45:31.783Z,100.00
2023-05-03T20:47:58.350Z,100.00
2023-05-03T20:50:24.931Z,100.00
2023-05-03T20:52:51.703Z,100.00
2023-05-03T20:55:18.387Z,100.00
2023-05-03T20:57:45.083Z,100.00
2023-05-03T21:00:12.489Z,100.00
2023-05-03T21:02:39.408Z,100.00
2023-05-03T21:05:06.509Z,100.00
2023-05-03T21:07:33.057Z,100.00
2023-05-03T21:09:59.744Z,100.00
2023-05-03T21:12:26.673Z,100.00
2023-05-03T21:14:53.350Z,100.00
2023-05-03T21:17:20.017Z,100.00
2023-05-03T21:19:46.855Z,100.00
2023-05-03T21:22:13.416Z,100.00
2023-05-03T21:24:40.122Z,100.00
2023-05-03T21:27:06.677Z,100.00
2023-05-03T21:29:33.261Z,100.00
2023-05-03T21:31:59.883Z,100.00
2023-05-03T21:34:26.563Z,100.00
2023-05-03T21:36:53.075Z,100.00
2023-05-03T21:39:21.345Z,100.00
2023-05-03T21:41:48.411Z,100.00
2023-05-03T21:44:15.014Z,100.00
2023-05-03T21:46:44.691Z,100.00
2023-05-03T21:49:11.816Z,100.00
2023-05-03T21:51:38.359Z,100.00
2023-05-03T21:54:05.088Z,100.00
2023-05-03T21:56:31.810Z,100.00
2023-05-03T21:58:58.464Z,100.00
2023-05-03T22:01:25.277Z,100.00
2023-05-03T22:03:52.525Z,100.00
2023-05-03T22:06:19.414Z,100.00
2023-05-03T22:08:46.324Z,100.00
2023-05-03T22:11:13.538Z,100.00
2023-05-03T22:13:54.435Z,100.00
2023-05-03T22:16:27.317Z,100.00
2023-05-03T22:18:53.874Z,100.00
2023-05-03T22:21:20.772Z,100.00
2023-05-03T22:23:47.493Z,100.00
2023-05-03T22:26:14.043Z,100.00
2023-05-03T22:28:40.659Z,100.00
2023-05-03T22:31:07.265Z,100.00
2023-05-03T22:33:34.057Z,100.00
2023-05-03T22:36:00.859Z,100.00
2023-05-03T22:38:27.372Z,100.00
2023-05-03T22:40:53.925Z,100.00
2023-05-03T22:43:21.305Z,100.00
2023-05-03T22:45:47.888Z,100.00
2023-05-03T22:48:14.740Z,100.00
2023-05-03T22:50:41.332Z,100.00
2023-05-03T22:53:08.216Z,100.00
2023-05-03T22:55:35.403Z,100.00
2023-05-03T22:58:01.950Z,100.00
2023-05-03T23:00:28.510Z,100.00
2023-05-03T23:02:55.633Z,100.00
2023-05-03T23:05:22.331Z,100.00
2023-05-03T23:07:49.002Z,100.00
2023-05-03T23:10:15.802Z,100.00
2023-05-03T23:12:42.403Z,100.00
2023-05-03T23:15:10.362Z,100.00
2023-05-03T23:17:36.903Z,100.00
2023-05-03T23:20:05.509Z,100.00
2023-05-03T23:22:32.323Z,100.00
2023-05-03T23:24:59.000Z,100.00
2023-05-03T23:27:26.078Z,100.00
2023-05-03T23:29:53.175Z,100.00
2023-05-03T23:32:20.382Z,100.00
2023-05-03T23:34:47.566Z,100.00
2023-05-03T23:37:14.275Z,100.00
2023-05-03T23:39:44.909Z,100.00
2023-05-03T23:42:12.841Z,100.00
2023-05-03T23:44:53.747Z,100.00
2023-05-03T23:47:21.666Z,100.00
2023-05-03T23:49:48.331Z,100.00
2023-05-03T23:52:16.897Z,100.00
2023-05-03T23:54:43.590Z,100.00
2023-05-03T23:57:10.346Z,100.00
2023-05-03T23:59:36.882Z,100.00
